Time;durP1;ratioP1;P1;durP2;ratioP2;P2;SDS_P1;SDS_P2;PMS_P1;PMS_P2;Temp;Humidity;BMP_temperature;BMP_pressure;BME280_temperature;BME280_humidity;BME280_pressure;Samples;Min_cycle;Max_cycle;Signal;HPM_P1;HPM_P2
2023/12/04 00:00:29;;;;;;;;;;;;;;;17.99;63.69;99298.13;2090472;28;19931;-67
2023/12/04 00:01:29;;;;;;;;;;;;;;;17.98;63.65;99297.28;2090483;28;20387;-67
2023/12/04 00:02:31;;;;;;;;;;;;;;;17.97;63.79;99292.09;2089249;28;19924;-68
2023/12/04 00:03:32;;;;;;;;;;;;;;;17.96;63.86;99296.63;2088515;28;19928;-69
2023/12/04 00:04:33;;;;;;;;;;;;;;;17.95;63.82;99297.66;2089973;28;19982;-66
2023/12/04 00:05:34;;;;;;;;;;;;;;;17.96;63.88;99299.31;2089455;28;19932;-69
2023/12/04 00:06:35;;;;;;;;;;;;;;;17.95;63.69;99296.84;2089173;28;19959;-68
2023/12/04 00:07:36;;;;;;;;;;;;;;;17.93;63.67;99302.38;2090546;28;20052;-69
2023/12/04 00:08:37;;;;;;;;;;;;;;;17.89;63.78;99303.78;2090948;28;19987;-66
2023/12/04 00:09:39;;;;;;;;;;;;;;;17.88;64.03;99307.44;2090707;28;19970;-67
2023/12/04 00:10:39;;;;;;;;;;;;;;;17.86;63.75;99306.81;2092992;28;20029;-68
2023/12/04 00:11:41;;;;;;;;;;;;;;;17.83;63.96;99309.88;2090206;28;19978;-68
2023/12/04 00:12:41;;;;;;;;;;;;;;;17.79;64.15;99305.88;2089745;28;19935;-68
2023/12/04 00:13:43;;;;;;;;;;;;;;;17.76;64.23;99309.72;2090238;28;19928;-69
2023/12/04 00:14:44;;;;;;;;;;;;;;;17.76;64.22;99308.88;2090657;28;19932;-69
2023/12/04 00:15:47;;;;;;;;;;;;;;;17.76;64.23;99319.63;2090555;28;20672;-67
2023/12/04 00:16:47;;;;;;;;;;;;;;;17.72;64.09;99312.94;2090294;28;19928;-68
2023/12/04 00:17:49;;;;;;;;;;;;;;;17.68;64.24;99315.16;2090959;28;19929;-69
2023/12/04 00:18:50;;;;;;;;;;;;;;;17.69;64.17;99308.78;2093271;28;19924;-67
2023/12/04 00:19:51;;;;;;;;;;;;;;;17.67;64.46;99310.81;2091739;28;19976;-67
2023/12/04 00:20:52;;;;;;;;;;;;;;;17.63;64.42;99307.66;2090307;28;20787;-68
2023/12/04 00:21:54;;;;;;;;;;;;;;;17.60;64.36;99310.69;2092902;28;19929;-67
2023/12/04 00:22:54;;;;;;;;;;;;;;;17.61;64.43;99307.00;2091201;28;19932;-67
2023/12/04 00:23:56;;;;;;;;;;;;;;;17.62;64.46;99314.03;2089276;28;19925;-70
2023/12/04 00:24:57;;;;;;;;;;;;;;;17.60;64.50;99310.69;2092619;28;19931;-69
2023/12/04 00:25:58;;;;;;;;;;;;;;;17.60;64.55;99309.84;2089697;28;19978;-68
2023/12/04 00:26:59;;;;;;;;;;;;;;;17.61;64.25;99307.00;2089883;28;19959;-68
2023/12/04 00:28:01;;;;;;;;;;;;;;;17.59;64.46;99302.84;2091498;28;20014;-67
2023/12/04 00:29:01;;;;;;;;;;;;;;;17.55;64.43;99301.50;2090685;28;20341;-68
2023/12/04 00:30:04;;;;;;;;;;;;;;;17.54;64.66;99299.84;2093444;28;19933;-69
2023/12/04 00:31:07;;;;;;;;;;;;;;;17.55;64.29;99307.72;2094388;28;19928;-69
2023/12/04 00:32:09;;;;;;;;;;;;;;;17.54;64.55;99303.38;2091230;28;19925;-69
2023/12/04 00:33:09;;;;;;;;;;;;;;;17.54;64.37;99311.41;2090381;28;19928;-69
2023/12/04 00:34:12;;;;;;;;;;;;;;;17.52;64.59;99305.38;2092324;28;20655;-68
2023/12/04 00:35:14;;;;;;;;;;;;;;;17.52;64.32;99305.38;2090354;28;19928;-70
2023/12/04 00:36:15;;;;;;;;;;;;;;;17.52;64.50;99302.69;2089032;28;20319;-68
2023/12/04 00:37:17;;;;;;;;;;;;;;;17.51;64.27;99306.41;2090327;28;19929;-69
2023/12/04 00:38:17;;;;;;;;;;;;;;;17.48;64.32;99298.72;2090871;28;20299;-70
2023/12/04 00:39:19;;;;;;;;;;;;;;;17.47;64.65;99302.44;2089439;28;20019;-69
2023/12/04 00:40:20;;;;;;;;;;;;;;;17.47;64.34;99297.06;2091942;28;20300;-68
2023/12/04 00:41:22;;;;;;;;;;;;;;;17.48;64.39;99301.41;2088561;28;19924;-67
2023/12/04 00:42:22;;;;;;;;;;;;;;;17.49;64.18;99289.66;2088349;28;20057;-69
2023/12/04 00:43:24;;;;;;;;;;;;;;;17.48;64.16;99296.03;2090344;28;19936;-68
2023/12/04 00:44:25;;;;;;;;;;;;;;;17.46;64.26;99292.69;2089893;28;20456;-68
2023/12/04 00:45:26;;;;;;;;;;;;;;;17.47;64.27;99291.72;2089013;28;19960;-70
2023/12/04 00:46:28;;;;;;;;;;;;;;;17.45;64.27;99295.59;2087714;28;19982;-68
2023/12/04 00:47:30;;;;;;;;;;;;;;;17.45;64.26;99291.03;2086361;28;19928;-67
2023/12/04 00:48:31;;;;;;;;;;;;;;;17.43;64.33;99291.22;2091647;28;19932;-68
2023/12/04 00:49:31;;;;;;;;;;;;;;;17.43;64.39;99291.22;2089797;28;19933;-68
2023/12/04 00:50:33;;;;;;;;;;;;;;;17.39;64.26;99295.28;2090242;28;19932;-68
2023/12/04 00:51:37;;;;;;;;;;;;;;;17.41;64.33;99295.09;2088422;28;19990;-68
2023/12/04 00:52:38;;;;;;;;;;;;;;;17.43;64.33;99295.75;2091029;28;21894;-67
2023/12/04 00:53:39;;;;;;;;;;;;;;;17.39;64.26;99292.59;2091374;28;19939;-68
2023/12/04 00:54:40;;;;;;;;;;;;;;;17.39;64.28;99291.78;2090866;28;19929;-68
2023/12/04 00:55:42;;;;;;;;;;;;;;;17.37;64.31;99283.88;2093252;28;19932;-68
2023/12/04 00:56:43;;;;;;;;;;;;;;;17.35;64.23;99283.22;2089909;28;19985;-67
2023/12/04 00:57:44;;;;;;;;;;;;;;;17.37;64.33;99283.06;2090154;28;19925;-67
2023/12/04 00:58:45;;;;;;;;;;;;;;;17.36;64.39;99286.78;2087624;28;19924;-67
2023/12/04 00:59:47;;;;;;;;;;;;;;;17.38;64.35;99282.03;2089717;28;19928;-68
2023/12/04 01:00:48;;;;;;;;;;;;;;;17.33;64.33;99284.44;2089298;28;19933;-69
2023/12/04 01:01:51;;;;;;;;;;;;;;;17.34;64.44;99281.56;2089750;28;19936;-67
2023/12/04 01:02:52;;;;;;;;;;;;;;;17.34;64.15;99272.69;2087929;28;19932;-67
2023/12/04 01:03:53;;;;;;;;;;;;;;;17.33;64.08;99274.56;2089212;28;19963;-68
2023/12/04 01:04:54;;;;;;;;;;;;;;;17.30;64.18;99280.28;2089414;28;20424;-68
2023/12/04 01:05:55;;;;;;;;;;;;;;;17.30;64.49;99274.06;2091944;28;19978;-68
2023/12/04 01:06:57;;;;;;;;;;;;;;;17.31;64.21;99276.56;2087823;28;19971;-69
2023/12/04 01:07:57;;;;;;;;;;;;;;;17.30;64.42;99276.75;2089267;28;19936;-68
2023/12/04 01:08:59;;;;;;;;;;;;;;;17.31;64.21;99265.03;2087575;28;20393;-68
2023/12/04 01:09:59;;;;;;;;;;;;;;;17.31;64.13;99270.38;2089989;28;19954;-67
2023/12/04 01:11:01;;;;;;;;;;;;;;;17.28;64.25;99265.38;2089298;28;19970;-68
2023/12/04 01:12:02;;;;;;;;;;;;;;;17.26;64.25;99270.09;2087805;28;19928;-67
2023/12/04 01:13:04;;;;;;;;;;;;;;;17.26;64.14;99264.72;2089906;28;20395;-69
2023/12/04 01:14:06;;;;;;;;;;;;;;;17.24;64.28;99272.09;2090315;28;20011;-69
2023/12/04 01:15:09;;;;;;;;;;;;;;;17.23;64.33;99273.94;2089969;28;20341;-70
2023/12/04 01:16:10;;;;;;;;;;;;;;;17.21;64.31;99267.94;2089957;28;19985;-69
2023/12/04 01:17:13;;;;;;;;;;;;;;;17.19;64.39;99268.13;2089538;28;19978;-68
2023/12/04 01:18:14;;;;;;;;;;;;;;;17.22;64.31;99258.03;2089287;28;20015;-69
2023/12/04 01:19:16;;;;;;;;;;;;;;;17.19;64.28;99264.63;2089513;28;19929;-68
2023/12/04 01:20:17;;;;;;;;;;;;;;;17.19;64.41;99265.44;2088359;28;19935;-66
2023/12/04 01:21:18;;;;;;;;;;;;;;;17.19;64.31;99265.44;2091011;28;20391;-68
2023/12/04 01:22:19;;;;;;;;;;;;;;;17.17;64.65;99262.09;2086299;28;19939;-68
2023/12/04 01:23:20;;;;;;;;;;;;;;;17.15;64.47;99261.44;2090066;28;19924;-69
2023/12/04 01:24:22;;;;;;;;;;;;;;;17.13;64.39;99254.59;2088074;28;19932;-68
2023/12/04 01:25:22;;;;;;;;;;;;;;;17.10;64.49;99261.13;2090153;28;20510;-67
2023/12/04 01:26:24;;;;;;;;;;;;;;;17.13;64.47;99251.91;2090295;28;20466;-68
2023/12/04 01:27:25;;;;;;;;;;;;;;;17.11;64.38;99252.09;2090174;28;20004;-68
2023/12/04 01:28:26;;;;;;;;;;;;;;;17.10;64.29;99245.03;2088873;28;20021;-68
2023/12/04 01:29:27;;;;;;;;;;;;;;;17.10;64.34;99239.69;2092354;28;19954;-68
2023/12/04 01:30:29;;;;;;;;;;;;;;;17.08;64.46;99247.09;2090607;28;19933;-69
2023/12/04 01:31:29;;;;;;;;;;;;;;;17.10;64.44;99246.91;2090546;28;19929;-67
2023/12/04 01:32:32;;;;;;;;;;;;;;;17.10;64.36;99245.03;2090816;28;19960;-68
2023/12/04 01:33:33;;;;;;;;;;;;;;;17.06;64.56;99246.44;2090877;28;19925;-68
2023/12/04 01:34:33;;;;;;;;;;;;;;;17.05;64.54;99242.09;2093898;28;19924;-69
2023/12/04 01:35:35;;;;;;;;;;;;;;;17.05;64.59;99241.25;2092997;28;19939;-69
2023/12/04 01:36:39;;;;;;;;;;;;;;;17.08;64.33;99246.28;2091258;28;19924;-69
2023/12/04 01:37:40;;;;;;;;;;;;;;;17.07;64.28;99226.66;2089362;28;20407;-70
2023/12/04 01:38:42;;;;;;;;;;;;;;;17.04;64.44;99240.41;2089456;28;19924;-68
2023/12/04 01:39:42;;;;;;;;;;;;;;;17.04;64.36;99228.88;2090262;28;19940;-67
2023/12/04 01:40:44;;;;;;;;;;;;;;;17.01;64.46;99229.22;2088848;28;19928;-66
2023/12/04 01:41:44;;;;;;;;;;;;;;;16.99;64.45;99226.72;2086471;28;19933;-67
2023/12/04 01:42:45;;;;;;;;;;;;;;;16.96;64.61;99222.53;2090209;28;19933;-66
2023/12/04 01:43:47;;;;;;;;;;;;;;;16.99;64.64;99232.06;2087770;28;19925;-66
2023/12/04 01:44:47;;;;;;;;;;;;;;;16.98;64.47;99231.25;2091739;28;19928;-69
2023/12/04 01:45:50;;;;;;;;;;;;;;;16.97;64.37;99229.59;2012437;28;2175938;-67
2023/12/04 01:46:51;;;;;;;;;;;;;;;16.98;64.49;99227.72;2090218;28;19932;-69
2023/12/04 01:47:54;;;;;;;;;;;;;;;16.97;64.68;99231.44;2088856;28;19933;-68
2023/12/04 01:48:55;;;;;;;;;;;;;;;16.93;64.72;99227.44;2087090;28;19938;-69
2023/12/04 01:49:56;;;;;;;;;;;;;;;16.95;64.45;99225.41;2088301;28;21740;-67
2023/12/04 01:50:59;;;;;;;;;;;;;;;16.96;64.42;99221.72;2089195;28;19928;-67
2023/12/04 01:51:59;;;;;;;;;;;;;;;16.96;64.52;99229.75;2087454;28;19925;-70
2023/12/04 01:53:02;;;;;;;;;;;;;;;16.92;64.41;99221.25;2089644;28;19936;-69
2023/12/04 01:54:04;;;;;;;;;;;;;;;16.90;64.41;99220.56;2088970;28;19933;-69
2023/12/04 01:55:06;;;;;;;;;;;;;;;16.92;64.63;99220.41;2088586;28;19933;-70
2023/12/04 01:56:09;;;;;;;;;;;;;;;16.87;64.71;99223.63;2087622;28;20447;-69
2023/12/04 01:57:10;;;;;;;;;;;;;;;16.88;64.68;99219.09;2091082;28;19924;-70
2023/12/04 01:58:12;;;;;;;;;;;;;;;16.87;64.71;99222.78;2090345;28;19936;-70
2023/12/04 01:59:13;;;;;;;;;;;;;;;16.88;64.65;99219.09;2091574;28;19932;-68
2023/12/04 02:00:15;;;;;;;;;;;;;;;16.84;64.65;99218.63;2090277;28;19963;-68
2023/12/04 02:01:17;;;;;;;;;;;;;;;16.85;64.70;99225.63;2089158;28;19974;-68
2023/12/04 02:02:21;;;;;;;;;;;;;;;16.85;64.51;99220.28;2088706;28;20012;-68
2023/12/04 02:03:23;;;;;;;;;;;;;;;16.81;64.64;99218.97;2089152;28;19924;-68
2023/12/04 02:04:24;;;;;;;;;;;;;;;16.83;64.59;99221.50;2089277;28;24156;-67
2023/12/04 02:05:26;;;;;;;;;;;;;;;16.82;64.69;99217.13;2089500;28;19932;-67
2023/12/04 02:06:28;;;;;;;;;;;;;;;16.81;64.69;99224.34;2088465;28;19986;-67
2023/12/04 02:07:28;;;;;;;;;;;;;;;16.79;64.78;99226.34;2087337;28;21018;-68
2023/12/04 02:08:30;;;;;;;;;;;;;;;16.79;64.77;99223.66;2088861;28;19933;-67
2023/12/04 02:09:31;;;;;;;;;;;;;;;16.79;64.53;99225.50;2087197;28;19936;-67
2023/12/04 02:10:32;;;;;;;;;;;;;;;16.79;64.63;99220.16;2088528;28;19933;-68
2023/12/04 02:11:33;;;;;;;;;;;;;;;16.75;64.79;99225.00;2092140;28;19928;-69
2023/12/04 02:12:35;;;;;;;;;;;;;;;16.74;64.77;99220.66;2091694;28;19972;-69
2023/12/04 02:13:35;;;;;;;;;;;;;;;16.75;64.59;99230.38;2088973;28;19932;-68
2023/12/04 02:14:37;;;;;;;;;;;;;;;16.73;64.73;99219.00;2092085;28;19989;-67
2023/12/04 02:15:38;;;;;;;;;;;;;;;16.72;64.74;99226.19;2090851;28;19977;-68
2023/12/04 02:16:40;;;;;;;;;;;;;;;16.72;64.76;99214.66;2089918;28;20437;-67
2023/12/04 02:17:44;;;;;;;;;;;;;;;16.71;64.71;99219.16;2090847;28;19932;-68
2023/12/04 02:18:46;;;;;;;;;;;;;;;16.67;64.89;99217.84;2090881;28;20016;-67
2023/12/04 02:19:48;;;;;;;;;;;;;;;16.69;64.85;99221.19;2090554;28;19928;-67
2023/12/04 02:20:48;;;;;;;;;;;;;;;16.71;64.75;99218.31;2089731;28;20399;-68
2023/12/04 02:21:50;;;;;;;;;;;;;;;16.67;64.74;99219.72;2091142;28;19981;-69
2023/12/04 02:22:50;;;;;;;;;;;;;;;16.65;64.85;99221.72;2091502;28;19928;-68
2023/12/04 02:23:52;;;;;;;;;;;;;;;16.66;64.76;99218.00;2081992;28;19964;-68
2023/12/04 02:24:58;;;;;;;;;;;;;;;16.62;64.83;99214.88;2089772;28;20348;-67
2023/12/04 02:25:59;;;;;;;;;;;;;;;16.61;64.91;99215.06;2089919;28;19924;-70
2023/12/04 02:27:06;;;;;;;;;;;;;;;16.61;64.91;99210.53;2091998;28;19986;-67
2023/12/04 02:28:11;;;;;;;;;;;;;;;16.60;64.79;99203.50;2091101;28;19928;-73
2023/12/04 02:29:15;;;;;;;;;;;;;;;16.61;64.75;99202.50;2091577;28;19932;-67
2023/12/04 02:30:18;;;;;;;;;;;;;;;16.59;64.95;99201.84;2091853;28;19932;-67
2023/12/04 02:31:21;;;;;;;;;;;;;;;16.61;64.84;99204.34;2088667;28;19959;-68
2023/12/04 02:32:23;;;;;;;;;;;;;;;16.60;64.89;99211.53;2090785;28;19931;-68
2023/12/04 02:33:25;;;;;;;;;;;;;;;16.60;64.67;99211.53;2091492;28;19932;-67
2023/12/04 02:34:27;;;;;;;;;;;;;;;16.58;64.93;99208.22;2092871;28;19932;-67
2023/12/04 02:35:33;;;;;;;;;;;;;;;16.56;64.76;99215.56;2091402;28;19932;-67
2023/12/04 02:36:34;;;;;;;;;;;;;;;16.58;64.71;99212.75;2089567;28;19932;-69
2023/12/04 02:37:36;;;;;;;;;;;;;;;16.53;64.77;99211.41;2091421;28;19931;-67
2023/12/04 02:38:37;;;;;;;;;;;;;;;16.56;64.85;99214.75;2088312;28;22273;-67
2023/12/04 02:39:40;;;;;;;;;;;;;;;16.56;64.78;99215.56;2091370;28;19979;-67
2023/12/04 02:40:40;;;;;;;;;;;;;;;16.52;64.90;99209.75;2087880;28;19982;-67
2023/12/04 02:41:42;;;;;;;;;;;;;;;16.52;64.88;99215.09;2089841;28;20441;-67
2023/12/04 02:42:42;;;;;;;;;;;;;;;16.51;64.91;99215.25;2089673;28;19974;-67
2023/12/04 02:43:43;;;;;;;;;;;;;;;16.55;64.85;99224.63;2091754;28;20293;-68
2023/12/04 02:44:45;;;;;;;;;;;;;;;16.51;64.87;99217.94;2089659;28;19954;-68
2023/12/04 02:45:45;;;;;;;;;;;;;;;16.52;64.73;99215.09;2092752;28;20307;-68
2023/12/04 02:46:47;;;;;;;;;;;;;;;16.52;64.75;99214.28;2090260;28;19925;-69
2023/12/04 02:47:49;;;;;;;;;;;;;;;16.56;64.66;99214.75;2089951;28;20015;-67
2023/12/04 02:48:49;;;;;;;;;;;;;;;16.55;64.63;99205.88;2090810;28;19932;-66
2023/12/04 02:49:51;;;;;;;;;;;;;;;16.59;64.55;99215.22;2088954;28;20738;-68
2023/12/04 02:50:51;;;;;;;;;;;;;;;16.54;64.55;99212.22;2091989;28;20311;-68
2023/12/04 02:51:53;;;;;;;;;;;;;;;16.51;64.68;99210.75;2090320;28;19975;-68
2023/12/04 02:52:54;;;;;;;;;;;;;;;16.52;64.68;99208.91;2090250;28;19928;-66
2023/12/04 02:53:55;;;;;;;;;;;;;;;16.56;64.42;99204.03;2088928;28;19978;-69
2023/12/04 02:54:57;;;;;;;;;;;;;;;16.54;64.53;99204.19;2090236;28;20001;-70
2023/12/04 02:55:59;;;;;;;;;;;;;;;16.56;64.53;99210.22;2091143;28;19975;-68
2023/12/04 02:57:00;;;;;;;;;;;;;;;16.50;64.71;99206.41;2088811;28;19979;-69
2023/12/04 02:58:01;;;;;;;;;;;;;;;16.49;64.54;99204.75;2090259;28;19951;-69
2023/12/04 02:59:02;;;;;;;;;;;;;;;16.49;64.55;99204.75;2088523;28;19950;-69
2023/12/04 03:00:05;;;;;;;;;;;;;;;16.44;64.69;99195.56;2088981;28;19925;-68
2023/12/04 03:01:06;;;;;;;;;;;;;;;16.46;64.74;99198.88;2090157;28;20039;-69
2023/12/04 03:02:08;;;;;;;;;;;;;;;16.49;64.56;99198.53;2092913;28;19936;-69
2023/12/04 03:03:08;;;;;;;;;;;;;;;16.51;64.53;99207.22;2092339;28;19928;-68
2023/12/04 03:04:10;;;;;;;;;;;;;;;16.48;64.57;99207.59;2093026;28;19970;-69
2023/12/04 03:05:11;;;;;;;;;;;;;;;16.47;64.59;99203.25;2094368;28;20391;-69
2023/12/04 03:06:15;;;;;;;;;;;;;;;16.43;64.56;99207.28;2093446;28;20379;-67
2023/12/04 03:07:19;;;;;;;;;;;;;;;16.45;64.70;99207.94;2093199;28;19929;-72
2023/12/04 03:08:21;;;;;;;;;;;;;;;16.50;64.43;99205.56;2090878;28;19959;-70
2023/12/04 03:09:22;;;;;;;;;;;;;;;16.47;64.41;99205.94;2089934;28;19946;-67
2023/12/04 03:10:25;;;;;;;;;;;;;;;16.43;64.65;99207.28;2089593;28;19954;-67
2023/12/04 03:11:26;;;;;;;;;;;;;;;16.43;64.56;99204.59;2091530;28;19928;-69
2023/12/04 03:12:27;;;;;;;;;;;;;;;16.45;64.42;99202.59;2089164;28;19939;-69
2023/12/04 03:13:28;;;;;;;;;;;;;;;16.46;64.50;99206.91;2089782;28;19940;-69
2023/12/04 03:14:30;;;;;;;;;;;;;;;16.42;64.57;99211.81;2090115;28;19928;-69
2023/12/04 03:15:30;;;;;;;;;;;;;;;16.45;64.32;99208.78;2091229;28;19986;-68
2023/12/04 03:16:31;;;;;;;;;;;;;;;16.43;64.29;99204.59;2090050;28;20395;-67
2023/12/04 03:17:33;;;;;;;;;;;;;;;16.43;64.50;99207.28;2088573;28;19935;-67
2023/12/04 03:18:35;;;;;;;;;;;;;;;16.43;64.48;99210.78;2089420;28;19981;-69
2023/12/04 03:19:37;;;;;;;;;;;;;;;16.44;64.44;99208.97;2091161;28;20366;-68
2023/12/04 03:20:38;;;;;;;;;;;;;;;16.39;64.46;99205.97;2090368;28;20439;-68
2023/12/04 03:21:39;;;;;;;;;;;;;;;16.39;64.47;99201.44;2088760;28;19932;-66
2023/12/04 03:22:40;;;;;;;;;;;;;;;16.40;64.49;99205.78;2092502;28;19925;-69
2023/12/04 03:23:42;;;;;;;;;;;;;;;16.42;64.41;99205.63;2089553;28;19924;-69
2023/12/04 03:24:42;;;;;;;;;;;;;;;16.42;64.23;99208.28;2091878;28;19932;-68
2023/12/04 03:25:45;;;;;;;;;;;;;;;16.39;64.38;99204.13;2090662;28;20350;-67
2023/12/04 03:26:46;;;;;;;;;;;;;;;16.40;64.36;99203.09;2087957;28;19929;-68
2023/12/04 03:27:48;;;;;;;;;;;;;;;16.41;64.36;99202.13;2088670;28;19971;-68
2023/12/04 03:28:48;;;;;;;;;;;;;;;16.38;64.34;99201.59;2092096;28;20375;-67
2023/12/04 03:29:50;;;;;;;;;;;;;;;16.39;64.32;99204.13;2091558;28;19947;-67
2023/12/04 03:30:50;;;;;;;;;;;;;;;16.38;64.42;99199.78;2093959;28;20678;-70
2023/12/04 03:31:51;;;;;;;;;;;;;;;16.39;64.38;99206.81;2088409;28;19971;-67
2023/12/04 03:32:53;;;;;;;;;;;;;;;16.36;64.39;99207.16;2089276;28;20070;-67
2023/12/04 03:33:53;;;;;;;;;;;;;;;16.35;64.37;99205.47;2090185;28;19928;-67
2023/12/04 03:34:55;;;;;;;;;;;;;;;16.37;64.27;99208.81;2090766;28;19929;-67
2023/12/04 03:35:56;;;;;;;;;;;;;;;16.40;64.22;99213.81;2090749;28;19928;-69
2023/12/04 03:36:56;;;;;;;;;;;;;;;16.38;64.21;99212.31;2090302;28;20437;-69
2023/12/04 03:37:58;;;;;;;;;;;;;;;16.39;64.10;99214.00;2088299;28;19985;-68
2023/12/04 03:38:59;;;;;;;;;;;;;;;16.38;64.19;99206.97;2090184;28;19924;-68
2023/12/04 03:40:00;;;;;;;;;;;;;;;16.36;64.16;99215.19;2092061;28;20284;-67
2023/12/04 03:41:02;;;;;;;;;;;;;;;16.37;64.24;99214.16;2091000;28;20388;-68
2023/12/04 03:42:05;;;;;;;;;;;;;;;16.35;64.18;99212.66;2089392;28;19936;-68
2023/12/04 03:43:06;;;;;;;;;;;;;;;16.35;64.19;99212.66;2092677;28;19974;-68
2023/12/04 03:44:08;;;;;;;;;;;;;;;16.34;64.24;99219.03;2091878;28;19932;-68
2023/12/04 03:45:09;;;;;;;;;;;;;;;16.32;64.22;99213.84;2092758;28;19966;-68
2023/12/04 03:46:11;;;;;;;;;;;;;;;16.27;64.25;99216.25;2090954;28;19934;-68
2023/12/04 03:47:12;;;;;;;;;;;;;;;16.28;64.28;99221.41;2089987;28;19925;-68
2023/12/04 03:48:13;;;;;;;;;;;;;;;16.29;64.22;99214.19;2088173;28;20331;-68
2023/12/04 03:49:14;;;;;;;;;;;;;;;16.28;64.26;99221.41;2089437;28;19939;-69
2023/12/04 03:50:15;;;;;;;;;;;;;;;16.28;64.37;99215.22;2090667;28;20531;-69
2023/12/04 03:51:16;;;;;;;;;;;;;;;16.26;64.32;99215.38;2091103;28;19929;-69
2023/12/04 03:52:18;;;;;;;;;;;;;;;16.26;64.30;99214.56;2088816;28;19932;-66
2023/12/04 03:53:19;;;;;;;;;;;;;;;16.29;64.46;99214.19;2089724;28;20331;-69
2023/12/04 03:54:20;;;;;;;;;;;;;;;16.29;64.18;99215.03;2091448;28;19934;-68
2023/12/04 03:55:21;;;;;;;;;;;;;;;16.26;64.30;99204.69;2093217;28;19978;-69
2023/12/04 03:56:24;;;;;;;;;;;;;;;16.25;64.23;99208.38;2092682;28;19981;-68
2023/12/04 03:57:25;;;;;;;;;;;;;;;16.24;64.31;99211.22;2089024;28;19933;-68
2023/12/04 03:58:27;;;;;;;;;;;;;;;16.23;64.33;99212.22;2089568;28;20565;-69
2023/12/04 03:59:27;;;;;;;;;;;;;;;16.24;64.18;99206.72;2092531;28;19950;-68
2023/12/04 04:00:29;;;;;;;;;;;;;;;16.25;64.21;99212.91;2088736;28;19925;-68
2023/12/04 04:01:29;;;;;;;;;;;;;;;16.24;64.26;99214.75;2091251;28;19932;-69
2023/12/04 04:02:31;;;;;;;;;;;;;;;16.23;64.32;99213.06;2091674;28;20445;-68
2023/12/04 04:03:32;;;;;;;;;;;;;;;16.25;64.16;99215.56;2088921;28;19933;-68
2023/12/04 04:04:32;;;;;;;;;;;;;;;16.23;64.15;99218.41;2094128;28;19928;-68
2023/12/04 04:05:35;;;;;;;;;;;;;;;16.22;64.18;99206.03;2089211;28;19932;-68
2023/12/04 04:06:38;;;;;;;;;;;;;;;16.20;64.48;99213.41;2092740;28;19931;-69
2023/12/04 04:07:40;;;;;;;;;;;;;;;16.14;64.43;99200.72;2089114;28;21160;-68
2023/12/04 04:08:41;;;;;;;;;;;;;;;16.14;64.33;99203.41;2087174;28;20601;-68
2023/12/04 04:09:42;;;;;;;;;;;;;;;16.16;64.44;99198.72;2092121;28;20015;-68
2023/12/04 04:10:43;;;;;;;;;;;;;;;16.22;64.30;99203.38;2089080;28;20455;-67
2023/12/04 04:11:46;;;;;;;;;;;;;;;16.27;64.01;99198.34;2091088;28;19981;-67
2023/12/04 04:12:47;;;;;;;;;;;;;;;16.36;63.88;99196.44;2089772;28;19932;-68
2023/12/04 04:13:49;;;;;;;;;;;;;;;16.43;63.70;99194.72;2091927;28;19932;-67
2023/12/04 04:14:49;;;;;;;;;;;;;;;16.51;63.57;99199.19;2091102;28;19938;-68
2023/12/04 04:15:52;;;;;;;;;;;;;;;16.57;63.41;99195.81;2092137;28;19998;-68
2023/12/04 04:16:52;;;;;;;;;;;;;;;16.62;63.44;99203.31;2089132;28;19928;-68
2023/12/04 04:17:54;;;;;;;;;;;;;;;16.68;63.35;99199.94;2089665;28;20509;-67
2023/12/04 04:18:54;;;;;;;;;;;;;;;16.73;63.16;99195.72;2090449;28;19928;-67
2023/12/04 04:19:55;;;;;;;;;;;;;;;16.80;63.00;99200.38;2088109;28;19968;-67
2023/12/04 04:20:57;;;;;;;;;;;;;;;16.84;63.09;99201.72;2085366;28;19932;-68
2023/12/04 04:21:58;;;;;;;;;;;;;;;16.86;63.09;99197.84;2090010;28;19928;-67
2023/12/04 04:22:59;;;;;;;;;;;;;;;16.91;63.10;99199.97;2090055;28;20277;-68
2023/12/04 04:24:00;;;;;;;;;;;;;;;16.94;62.98;99205.00;2089719;28;20315;-68
2023/12/04 04:25:01;;;;;;;;;;;;;;;16.96;62.88;99195.75;2092360;28;19925;-67
2023/12/04 04:26:02;;;;;;;;;;;;;;;17.00;62.81;99200.78;2089651;28;19956;-68
2023/12/04 04:27:06;;;;;;;;;;;;;;;17.03;62.86;99201.22;2091371;28;20307;-69
2023/12/04 04:28:07;;;;;;;;;;;;;;;17.05;62.63;99193.84;2088805;28;20352;-68
2023/12/04 04:29:09;;;;;;;;;;;;;;;17.08;62.72;99196.16;2090772;28;19928;-68
2023/12/04 04:30:10;;;;;;;;;;;;;;;17.10;62.60;99194.13;2089684;28;19931;-68
2023/12/04 04:31:12;;;;;;;;;;;;;;;17.12;62.70;99197.47;2091848;28;19932;-67
2023/12/04 04:32:13;;;;;;;;;;;;;;;17.14;62.58;99192.75;2093130;28;20063;-72
2023/12/04 04:33:17;;;;;;;;;;;;;;;17.18;62.83;99195.91;2090743;28;19947;-69
2023/12/04 04:34:18;;;;;;;;;;;;;;;17.18;62.68;99196.75;2090226;28;19932;-67
2023/12/04 04:35:20;;;;;;;;;;;;;;;17.22;62.67;99205.28;2090418;28;20376;-69
2023/12/04 04:36:21;;;;;;;;;;;;;;;17.25;62.77;99204.09;2089395;28;19933;-70
2023/12/04 04:37:22;;;;;;;;;;;;;;;17.26;62.70;99200.38;2094263;28;19928;-68
2023/12/04 04:38:24;;;;;;;;;;;;;;;17.28;62.58;99204.53;2092379;28;20013;-68
2023/12/04 04:39:25;;;;;;;;;;;;;;;17.30;62.40;99204.34;2093706;28;19932;-67
2023/12/04 04:40:26;;;;;;;;;;;;;;;17.32;62.55;99199.66;2090106;28;20430;-67
2023/12/04 04:41:27;;;;;;;;;;;;;;;17.35;62.49;99197.44;2090893;28;19936;-68
2023/12/04 04:42:30;;;;;;;;;;;;;;;17.36;62.45;99203.66;2090581;28;19925;-68
2023/12/04 04:43:31;;;;;;;;;;;;;;;17.39;62.72;99195.25;2089215;28;19931;-68
2023/12/04 04:44:32;;;;;;;;;;;;;;;17.40;62.45;99199.56;2091041;28;19931;-68
2023/12/04 04:45:33;;;;;;;;;;;;;;;17.41;62.48;99194.03;2092245;28;19931;-68
2023/12/04 04:46:35;;;;;;;;;;;;;;;17.45;62.54;99196.34;2091504;28;19939;-68
2023/12/04 04:47:35;;;;;;;;;;;;;;;17.47;62.49;99196.97;2088982;28;19932;-67
2023/12/04 04:48:37;;;;;;;;;;;;;;;17.50;62.37;99207.38;2090115;28;20513;-68
2023/12/04 04:49:37;;;;;;;;;;;;;;;17.52;62.47;99202.63;2090136;28;19925;-67
2023/12/04 04:50:39;;;;;;;;;;;;;;;17.53;62.34;99196.28;2091998;28;19925;-67
2023/12/04 04:51:40;;;;;;;;;;;;;;;17.55;62.43;99208.50;2088041;28;19928;-67
2023/12/04 04:52:42;;;;;;;;;;;;;;;17.56;62.48;99195.91;2089720;28;20460;-67
2023/12/04 04:53:42;;;;;;;;;;;;;;;17.58;62.52;99200.06;2088885;28;19924;-68
2023/12/04 04:54:44;;;;;;;;;;;;;;;17.60;62.40;99198.03;2091413;28;19986;-67
2023/12/04 04:55:44;;;;;;;;;;;;;;;17.61;62.42;99202.38;2091926;28;19928;-67
2023/12/04 04:56:46;;;;;;;;;;;;;;;17.63;62.41;99200.38;2090668;28;20280;-66
2023/12/04 04:57:48;;;;;;;;;;;;;;;17.66;62.39;99201.81;2089403;28;20414;-66
2023/12/04 04:58:50;;;;;;;;;;;;;;;17.68;62.31;99201.66;2089929;28;19932;-67
2023/12/04 04:59:50;;;;;;;;;;;;;;;17.71;62.30;99203.97;2087967;28;19979;-68
2023/12/04 05:00:52;;;;;;;;;;;;;;;17.73;62.37;99208.13;2089632;28;19925;-67
2023/12/04 05:01:53;;;;;;;;;;;;;;;17.73;62.50;99202.75;2087701;28;19933;-67
2023/12/04 05:02:54;;;;;;;;;;;;;;;17.75;62.23;99210.66;2090919;28;20899;-67
2023/12/04 05:03:55;;;;;;;;;;;;;;;17.78;62.12;99204.91;2091879;28;19928;-67
2023/12/04 05:04:56;;;;;;;;;;;;;;;17.79;62.37;99201.22;2087160;28;20654;-69
2023/12/04 05:05:57;;;;;;;;;;;;;;;17.80;62.53;99213.63;2086942;28;19990;-67
2023/12/04 05:06:59;;;;;;;;;;;;;;;17.81;62.21;99201.88;2089470;28;19978;-68
2023/12/04 05:07:59;;;;;;;;;;;;;;;17.83;62.27;99205.22;2089882;28;19974;-67
2023/12/04 05:09:01;;;;;;;;;;;;;;;17.84;62.21;99204.19;2092070;28;20323;-68
2023/12/04 05:10:02;;;;;;;;;;;;;;;17.84;62.41;99204.19;2088552;28;20303;-68
2023/12/04 05:11:04;;;;;;;;;;;;;;;17.84;62.37;99199.66;2089037;28;19925;-68
2023/12/04 05:12:05;;;;;;;;;;;;;;;17.85;62.37;99201.31;2088350;28;19936;-68
2023/12/04 05:13:09;;;;;;;;;;;;;;;17.87;62.39;99203.81;2089041;28;19932;-68
2023/12/04 05:14:09;;;;;;;;;;;;;;;17.84;62.41;99199.66;2089926;28;19925;-68
2023/12/04 05:15:11;;;;;;;;;;;;;;;17.85;62.47;99195.94;2089740;28;19959;-69
2023/12/04 05:16:12;;;;;;;;;;;;;;;17.86;62.38;99199.47;2088036;28;19929;-68
2023/12/04 05:17:14;;;;;;;;;;;;;;;17.86;62.18;99204.84;2088636;28;19932;-69
2023/12/04 05:18:15;;;;;;;;;;;;;;;17.85;62.47;99200.47;2088198;28;19928;-68
2023/12/04 05:19:17;;;;;;;;;;;;;;;17.84;62.19;99199.66;2091831;28;20334;-69
2023/12/04 05:20:18;;;;;;;;;;;;;;;17.84;62.22;99205.03;2089486;28;19993;-67